Time;durP1;ratioP1;P1;durP2;ratioP2;P2;SDS_P1;SDS_P2;PMS_P1;PMS_P2;Temp;Humidity;BMP_temperature;BMP_pressure;BME280_temperature;BME280_humidity;BME280_pressure;Samples;Min_cycle;Max_cycle;Signal;HPM_P1;HPM_P2
2021/07/13 00:25:15;;;;;;;2.53;1.40;;;21.70;99.90;;;;;;5465599;22;20504;-94
2021/07/13 00:28:00;;;;;;;1.70;1.30;;;21.70;99.90;;;;;;5028200;28;20449;-94
2021/07/13 00:30:29;;;;;;;2.40;1.40;;;21.60;99.90;;;;;;5021997;28;20456;-94
2021/07/13 00:32:57;;;;;;;4.67;2.03;;;21.60;99.90;;;;;;5020931;28;20485;-92
2021/07/13 00:38:29;;;;;;;3.23;1.30;;;21.60;99.90;;;;;;5025238;28;20463;-94
2021/07/13 00:41:16;;;;;;;2.43;1.43;;;21.60;99.90;;;;;;5021288;28;20539;-94
2021/07/13 00:43:47;;;;;;;2.87;1.80;;;21.60;99.90;;;;;;5021450;28;20480;-94
2021/07/13 00:46:14;;;;;;;1.60;1.50;;;21.60;99.90;;;;;;5003040;28;20486;-94
2021/07/13 00:48:41;;;;;;;1.53;1.27;;;21.60;99.90;;;;;;5026148;28;20492;-93
2021/07/13 01:05:43;;;;;;;5.23;2.67;;;21.40;99.90;;;;;;5003017;28;20505;-93
2021/07/13 01:08:28;;;;;;;3.10;2.20;;;21.40;99.90;;;;;;4987739;28;20472;-94
2021/07/13 01:11:07;;;;;;;2.80;2.60;;;21.40;99.90;;;;;;5004549;28;20489;-93
2021/07/13 01:13:40;;;;;;;2.90;2.47;;;21.30;99.90;;;;;;5002966;28;20936;-93
2021/07/13 01:16:23;;;;;;;4.50;2.67;;;21.30;99.90;;;;;;5003575;28;20447;-95
2021/07/13 01:19:29;;;;;;;3.60;2.33;;;21.30;99.90;;;;;;4986009;28;20451;-95
2021/07/13 01:22:11;;;;;;;3.83;3.30;;;21.30;99.90;;;;;;5004629;28;20521;-95
2021/07/13 01:25:11;;;;;;;4.67;2.73;;;21.30;99.90;;;;;;5003306;28;20458;-95
2021/07/13 01:28:12;;;;;;;6.17;3.70;;;21.30;99.90;;;;;;5011118;28;20435;-95
2021/07/13 01:30:48;;;;;;;3.80;2.60;;;21.30;99.90;;;;;;5066631;22;20981;-94
2021/07/13 01:33:22;;;;;;;2.57;2.37;;;21.20;99.90;;;;;;5022070;28;20457;-94
2021/07/13 01:35:55;;;;;;;4.80;2.40;;;21.20;99.90;;;;;;5022078;28;20457;-94
2021/07/13 01:38:26;;;;;;;3.63;2.50;;;21.10;99.90;;;;;;5020955;28;20454;-94
2021/07/13 01:40:58;;;;;;;5.37;2.13;;;21.10;99.90;;;;;;5037015;28;20509;-95
2021/07/13 01:43:26;;;;;;;3.27;2.70;;;21.10;99.90;;;;;;5012197;28;20455;-94
2021/07/13 01:45:58;;;;;;;4.67;2.40;;;21.10;99.90;;;;;;5036736;28;20469;-94
2021/07/13 01:48:28;;;;;;;2.87;2.23;;;21.00;99.90;;;;;;5031744;28;20549;-94
2021/07/13 01:50:56;;;;;;;3.70;2.03;;;21.00;99.90;;;;;;5033357;28;20536;-94
2021/07/13 01:53:25;;;;;;;3.53;2.20;;;21.00;99.90;;;;;;5030200;28;20451;-94
2021/07/13 01:55:54;;;;;;;2.50;1.67;;;21.00;99.90;;;;;;5007655;28;20448;-94
2021/07/13 01:58:25;;;;;;;3.40;2.20;;;20.90;99.90;;;;;;5013118;28;20830;-95
2021/07/13 02:01:17;;;;;;;5.67;3.40;;;20.80;99.90;;;;;;5031145;28;20468;-95
2021/07/13 02:03:57;;;;;;;4.43;2.53;;;20.70;99.90;;;;;;5030813;28;20523;-94
2021/07/13 02:12:23;;;;;;;4.90;2.47;;;20.30;99.90;;;;;;5033609;22;20474;-95
2021/07/13 02:17:48;;;;;;;3.43;1.97;;;20.20;99.90;;;;;;5609067;22;20532;-93
2021/07/13 02:20:24;;;;;;;2.67;1.90;;;20.00;99.90;;;;;;5033704;28;20477;-94
2021/07/13 02:22:52;;;;;;;3.57;1.93;;;20.00;99.90;;;;;;5013601;28;20452;-93
2021/07/13 03:00:43;;;;;;;3.47;2.70;;;19.30;99.90;;;;;;4987682;28;20483;-93
2021/07/13 03:05:56;;;;;;;4.77;2.97;;;19.20;99.90;;;;;;4999191;28;20476;-93
2021/07/13 03:22:11;;;;;;;4.13;3.10;;;19.20;99.90;;;;;;5017187;28;20487;-94
2021/07/13 03:40:15;;;;;;;3.93;3.40;;;19.20;99.90;;;;;;5651308;22;20516;-93
2021/07/13 03:43:04;;;;;;;4.80;3.40;;;19.10;99.90;;;;;;5832963;22;20521;-94
2021/07/13 03:45:36;;;;;;;3.90;3.40;;;19.10;99.90;;;;;;5010743;28;20480;-93
2021/07/13 03:53:43;;;;;;;4.93;3.43;;;19.10;99.90;;;;;;5385145;22;20487;-93
2021/07/13 04:03:14;;;;;;;3.77;3.33;;;19.10;99.90;;;;;;5036026;28;20504;-93
2021/07/13 04:17:57;;;;;;;5.60;5.10;;;19.20;99.90;;;;;;5219873;22;20503;-94
2021/07/13 05:59:46;;;;;;;;;;;;;;;;;;;;;
2021/07/13 06:26:50;;;;;;;3.90;3.50;;;20.30;99.90;;;;;;4929934;28;20494;-88
2021/07/13 08:03:33;;;;;;;5.30;3.57;;;19.60;99.90;;;;;;3556210;22;20500;-95
2021/07/13 08:06:01;;;;;;;6.53;3.63;;;19.60;99.90;;;;;;5024286;28;20464;-92
2021/07/13 08:11:11;;;;;;;6.17;4.20;;;19.70;99.90;;;;;;5067935;22;20499;-92
2021/07/13 08:13:39;;;;;;;3.80;2.97;;;19.70;99.90;;;;;;5032949;28;20470;-93
2021/07/13 08:16:16;;;;;;;7.27;4.67;;;19.80;99.90;;;;;;5038773;28;20442;-93
2021/07/13 08:18:45;;;;;;;11.50;3.70;;;20.00;99.90;;;;;;5030968;28;20446;-94
2021/07/13 08:21:19;;;;;;;4.87;4.00;;;20.00;99.90;;;;;;5030455;28;20430;-92
2021/07/13 08:26:31;;;;;;;4.50;3.20;;;20.10;99.90;;;;;;5006147;28;20483;-92
2021/07/13 08:28:59;;;;;;;5.37;4.20;;;20.10;99.90;;;;;;5006922;28;20460;-92
2021/07/13 08:34:09;;;;;;;5.70;5.17;;;20.30;99.90;;;;;;5033095;28;20470;-93
2021/07/13 08:36:41;;;;;;;5.40;4.90;;;20.50;99.90;;;;;;5038592;28;20442;-92
2021/07/13 08:39:10;;;;;;;5.03;4.53;;;20.60;99.90;;;;;;5028163;28;20467;-90
2021/07/13 08:41:38;;;;;;;6.63;4.67;;;20.50;99.90;;;;;;5027847;28;20430;-93
2021/07/13 08:44:24;;;;;;;4.80;4.40;;;20.50;99.90;;;;;;5028952;28;20439;-92
2021/07/13 08:46:55;;;;;;;6.70;4.60;;;20.50;99.90;;;;;;5012146;28;20502;-91
2021/07/13 08:49:25;;;;;;;5.67;4.10;;;20.40;99.90;;;;;;5016800;28;20530;-92
2021/07/13 08:51:52;;;;;;;6.00;4.70;;;20.40;99.90;;;;;;5005679;28;20470;-92
2021/07/13 08:54:21;;;;;;;6.33;5.20;;;20.30;99.90;;;;;;5005712;28;20438;-92
2021/07/13 08:56:49;;;;;;;5.90;4.37;;;20.20;99.90;;;;;;5010081;28;20425;-92
2021/07/13 08:59:18;;;;;;;4.80;4.40;;;20.20;99.90;;;;;;5016647;28;20467;-92
2021/07/13 09:01:46;;;;;;;5.97;5.07;;;20.20;99.90;;;;;;5029128;28;20448;-93
2021/07/13 09:04:14;;;;;;;4.97;4.57;;;20.10;99.90;;;;;;5023602;28;20449;-91
2021/07/13 09:06:55;;;;;;;6.33;4.37;;;20.10;99.90;;;;;;5007129;28;20487;-92
2021/07/13 09:09:26;;;;;;;4.43;4.03;;;20.00;99.90;;;;;;5008267;28;20513;-91
2021/07/13 09:12:17;;;;;;;3.33;3.13;;;20.00;99.90;;;;;;5014615;28;20807;-93
2021/07/13 09:15:04;;;;;;;3.10;2.83;;;20.00;99.90;;;;;;5033542;28;20473;-93
2021/07/13 09:17:39;;;;;;;3.47;2.60;;;20.00;99.90;;;;;;5031855;28;20431;-93
2021/07/13 09:20:24;;;;;;;2.67;2.37;;;20.00;99.90;;;;;;5031628;28;20453;-92
2021/07/13 09:22:59;;;;;;;2.33;2.13;;;20.00;99.90;;;;;;5007180;28;20436;-92
2021/07/13 09:25:32;;;;;;;2.10;1.90;;;19.90;99.90;;;;;;4992857;28;20839;-91
2021/07/13 09:28:10;;;;;;;2.27;2.07;;;19.90;99.90;;;;;;5027633;28;20500;-92
2021/07/13 09:30:42;;;;;;;2.90;2.00;;;19.80;99.90;;;;;;5037928;28;20490;-92
2021/07/13 09:33:17;;;;;;;2.10;1.90;;;19.70;99.90;;;;;;5026287;28;20455;-93
2021/07/13 09:36:21;;;;;;;3.57;1.80;;;19.60;99.90;;;;;;5024191;28;20448;-92
2021/07/13 09:38:56;;;;;;;2.27;1.47;;;19.50;99.90;;;;;;4985462;28;20465;-92
2021/07/13 11:56:09;;;;;;;1.93;0.53;;;17.50;99.90;;;;;;4947746;29;20508;-81
2021/07/13 11:58:37;;;;;;;1.43;0.60;;;17.50;99.90;;;;;;4962239;28;20465;-82
2021/07/13 12:01:21;;;;;;;2.80;0.90;;;17.60;99.90;;;;;;5026341;28;20453;-84
2021/07/13 12:03:48;;;;;;;1.17;0.87;;;17.60;99.90;;;;;;5018929;28;20451;-83
2021/07/13 12:06:18;;;;;;;1.57;0.70;;;17.70;99.90;;;;;;5009608;28;20451;-83
2021/07/13 12:08:51;;;;;;;2.33;1.00;;;17.90;99.90;;;;;;5012743;28;20490;-82
2021/07/13 12:11:28;;;;;;;0.93;0.70;;;18.00;99.90;;;;;;5011687;28;20464;-83
2021/07/13 12:13:57;;;;;;;4.63;0.70;;;18.20;99.90;;;;;;5007825;28;20450;-82
2021/07/13 12:16:30;;;;;;;0.90;0.80;;;18.50;99.90;;;;;;5023862;28;20524;-82
2021/07/13 12:19:01;;;;;;;1.53;0.90;;;18.70;99.90;;;;;;5017929;28;20472;-81
2021/07/13 12:21:30;;;;;;;1.20;0.73;;;18.90;99.90;;;;;;5001969;28;20587;-82
2021/07/13 12:24:01;;;;;;;2.23;1.50;;;18.90;99.90;;;;;;5005787;28;20512;-81
2021/07/13 12:26:33;;;;;;;2.50;0.90;;;19.00;99.90;;;;;;5021515;28;20455;-84
2021/07/13 12:29:06;;;;;;;1.27;0.97;;;19.20;99.90;;;;;;5020739;28;20556;-84
2021/07/13 12:31:35;;;;;;;1.87;1.07;;;19.30;99.90;;;;;;5030033;28;20494;-90
2021/07/13 12:34:17;;;;;;;1.00;0.80;;;19.50;99.90;;;;;;5017363;28;20530;-90
2021/07/13 12:36:53;;;;;;;2.60;1.20;;;19.60;99.90;;;;;;5013076;28;20451;-90
2021/07/13 12:39:32;;;;;;;1.17;0.83;;;19.80;99.90;;;;;;5019458;28;21003;-90
2021/07/13 12:42:05;;;;;;;0.90;0.70;;;19.70;99.90;;;;;;5018881;28;20446;-90
2021/07/13 12:44:38;;;;;;;1.03;0.93;;;19.80;99.90;;;;;;4999952;28;20448;-90
2021/07/13 12:47:29;;;;;;;1.00;0.60;;;19.90;99.90;;;;;;4999599;28;20996;-90
2021/07/13 12:50:11;;;;;;;1.63;1.00;;;20.10;99.90;;;;;;4998312;28;21005;-90
2021/07/13 12:52:55;;;;;;;1.90;1.07;;;20.10;99.90;;;;;;5009681;28;20448;-91
2021/07/13 12:55:30;;;;;;;3.27;1.00;;;20.20;99.90;;;;;;5022846;28;20466;-90
2021/07/13 12:58:13;;;;;;;0.83;0.70;;;20.40;99.90;;;;;;4999605;28;20456;-91
2021/07/13 13:00:42;;;;;;;1.13;0.60;;;20.70;99.90;;;;;;4998673;28;20503;-90
2021/07/13 13:03:12;;;;;;;0.93;0.80;;;20.80;99.90;;;;;;5011505;28;20509;-90
2021/07/13 13:05:40;;;;;;;0.77;0.53;;;20.90;99.90;;;;;;5019194;28;20517;-90
2021/07/13 13:08:10;;;;;;;1.07;0.83;;;21.00;99.90;;;;;;5012412;28;20481;-91
2021/07/13 13:10:40;;;;;;;1.43;0.90;;;21.10;99.90;;;;;;5022192;28;20453;-91
2021/07/13 13:13:25;;;;;;;1.50;0.80;;;21.20;99.90;;;;;;5020611;28;20539;-91
2021/07/13 13:15:52;;;;;;;2.50;1.13;;;21.20;99.90;;;;;;5015898;28;20547;-90
2021/07/13 13:18:19;;;;;;;1.37;0.87;;;21.10;99.90;;;;;;5000067;28;20536;-90
2021/07/13 13:20:46;;;;;;;1.33;0.73;;;21.20;99.90;;;;;;5005870;28;20462;-90
2021/07/13 13:23:17;;;;;;;1.90;1.10;;;21.20;99.90;;;;;;5001405;28;20475;-90
2021/07/13 13:25:45;;;;;;;2.53;1.00;;;21.00;99.90;;;;;;5017398;28;20453;-90
2021/07/13 13:28:22;;;;;;;1.60;0.97;;;20.90;99.90;;;;;;5024543;28;20521;-92
2021/07/13 13:30:49;;;;;;;1.70;1.57;;;20.80;99.90;;;;;;5019956;28;20944;-90
2021/07/13 13:33:25;;;;;;;0.90;0.80;;;20.90;99.90;;;;;;5028391;28;20485;-90
2021/07/13 13:36:04;;;;;;;1.23;0.90;;;20.90;99.90;;;;;;5033059;28;20441;-89
2021/07/13 13:38:42;;;;;;;1.13;0.83;;;21.00;99.90;;;;;;5005567;28;20476;-91
2021/07/13 13:41:10;;;;;;;1.53;1.30;;;21.00;99.90;;;;;;5007615;28;20452;-91
2021/07/13 13:43:40;;;;;;;1.20;0.90;;;21.20;99.90;;;;;;5000870;28;20826;-91
2021/07/13 13:46:07;;;;;;;1.50;0.90;;;21.50;99.90;;;;;;5008715;28;20803;-91
2021/07/13 13:48:34;;;;;;;1.53;0.80;;;21.40;99.90;;;;;;5030369;28;20513;-91
2021/07/13 13:51:04;;;;;;;1.23;0.87;;;21.30;99.90;;;;;;5026985;28;20915;-91
2021/07/13 13:53:36;;;;;;;1.83;0.70;;;21.30;99.90;;;;;;5016363;28;20526;-90
2021/07/13 13:56:04;;;;;;;1.97;1.10;;;21.30;99.90;;;;;;5016463;28;20451;-90
2021/07/13 13:58:31;;;;;;;2.17;1.23;;;21.40;99.90;;;;;;5024760;28;20456;-91
2021/07/13 14:01:05;;;;;;;1.80;1.03;;;21.30;99.90;;;;;;5032170;28;20474;-90
2021/07/13 14:03:34;;;;;;;1.47;0.70;;;21.30;99.90;;;;;;5017185;28;20486;-90
2021/07/13 14:06:36;;;;;;;2.43;1.00;;;21.30;99.90;;;;;;5016371;28;20455;-90
2021/07/13 14:09:05;;;;;;;0.90;0.67;;;21.50;99.90;;;;;;4994359;28;20495;-91
2021/07/13 14:11:35;;;;;;;1.70;1.03;;;21.90;99.90;;;;;;4997525;28;21005;-90
2021/07/13 14:14:07;;;;;;;1.87;0.80;;;22.50;99.90;;;;;;4998633;28;20506;-91
2021/07/13 14:16:50;;;;;;;1.27;0.90;;;23.10;99.90;;;;;;5005400;28;20987;-90
2021/07/13 14:19:18;;;;;;;1.10;1.00;;;23.10;99.90;;;;;;5002976;28;20499;-90
2021/07/13 14:21:45;;;;;;;1.67;0.80;;;23.00;99.90;;;;;;5010860;28;20508;-90
2021/07/13 14:24:13;;;;;;;1.20;0.90;;;22.70;99.90;;;;;;5013370;28;20449;-90
2021/07/13 14:26:39;;;;;;;1.17;0.97;;;22.20;99.90;;;;;;5008243;28;20514;-90
2021/07/13 14:29:07;;;;;;;1.37;1.07;;;21.70;99.90;;;;;;5003860;28;20489;-90
2021/07/13 14:31:37;;;;;;;1.47;1.10;;;21.10;99.90;;;;;;5002478;28;20450;-90
2021/07/13 14:34:09;;;;;;;2.20;1.20;;;21.20;99.90;;;;;;5022451;28;20528;-91
2021/07/13 14:36:38;;;;;;;1.20;1.10;;;21.10;99.90;;;;;;5010979;28;20442;-89
2021/07/13 14:39:07;;;;;;;3.57;1.43;;;21.00;99.90;;;;;;5014746;28;20467;-90
2021/07/13 14:41:36;;;;;;;1.90;1.40;;;20.80;99.90;;;;;;5001701;28;20458;-90
2021/07/13 14:44:08;;;;;;;1.70;1.13;;;20.70;99.90;;;;;;5003979;28;20514;-90
2021/07/13 14:46:37;;;;;;;0.90;0.80;;;20.70;99.90;;;;;;5021628;28;20484;-90
2021/07/13 14:49:07;;;;;;;1.40;1.30;;;20.50;99.90;;;;;;5020799;28;20492;-89
2021/07/13 14:51:36;;;;;;;1.40;1.03;;;20.30;99.90;;;;;;5021044;28;20454;-89
2021/07/13 14:54:04;;;;;;;1.47;1.10;;;20.20;99.90;;;;;;5032736;28;20462;-89
2021/07/13 14:56:47;;;;;;;1.27;1.00;;;20.20;99.90;;;;;;5032589;28;20488;-89
2021/07/13 14:59:15;;;;;;;1.50;0.90;;;20.10;99.90;;;;;;5016852;28;20538;-90
2021/07/13 15:01:45;;;;;;;3.10;1.00;;;20.10;99.90;;;;;;5027765;28;20455;-90
2021/07/13 15:04:17;;;;;;;1.80;1.70;;;20.10;99.90;;;;;;5030632;28;20477;-90
2021/07/13 15:06:44;;;;;;;2.40;1.30;;;20.10;99.90;;;;;;5025953;28;20505;-91
2021/07/13 15:09:11;;;;;;;2.73;0.93;;;20.10;99.90;;;;;;5024465;28;20516;-90
2021/07/13 15:11:39;;;;;;;1.20;0.93;;;20.10;99.90;;;;;;5026622;28;20462;-90
2021/07/13 15:14:10;;;;;;;1.37;1.27;;;20.00;99.90;;;;;;5039592;28;20435;-91
2021/07/13 15:16:38;;;;;;;2.17;0.90;;;20.00;99.90;;;;;;5037976;28;20446;-91
2021/07/13 15:19:06;;;;;;;2.37;1.30;;;20.00;99.90;;;;;;5009833;28;20471;-90
2021/07/13 15:21:38;;;;;;;1.33;1.23;;;20.10;99.90;;;;;;5009149;28;20942;-91
2021/07/13 15:24:15;;;;;;;1.67;0.80;;;20.20;99.90;;;;;;5020017;28;20441;-90
2021/07/13 15:26:44;;;;;;;3.23;1.40;;;20.20;99.90;;;;;;5015014;28;20445;-91
2021/07/13 15:29:11;;;;;;;1.97;1.50;;;20.20;99.90;;;;;;5025683;28;20490;-90
2021/07/13 15:31:39;;;;;;;3.00;1.60;;;20.20;99.90;;;;;;5017425;28;20457;-92
2021/07/13 15:34:06;;;;;;;1.33;1.13;;;20.30;99.90;;;;;;5004790;28;20450;-92
2021/07/13 15:36:43;;;;;;;3.20;1.43;;;20.30;99.90;;;;;;5016924;28;20454;-92
2021/07/13 15:39:43;;;;;;;1.20;0.93;;;20.30;99.90;;;;;;5011545;28;20495;-92
2021/07/13 15:42:24;;;;;;;2.20;1.03;;;20.30;99.90;;;;;;5017964;28;20492;-90
2021/07/13 15:45:40;;;;;;;;;;;;;;;;;;;;;
2021/07/13 16:00:40;;;;;;;2.13;1.33;;;20.20;99.90;;;;;;5020689;28;20495;-92
2021/07/13 16:03:10;;;;;;;1.80;1.20;;;20.00;99.90;;;;;;5020526;28;20435;-90
2021/07/13 16:05:40;;;;;;;1.90;1.30;;;19.80;99.90;;;;;;5013069;28;20879;-90
2021/07/13 16:08:14;;;;;;;1.20;1.10;;;19.60;99.90;;;;;;5012180;28;20484;-84
2021/07/13 16:10:52;;;;;;;1.20;1.00;;;19.40;99.90;;;;;;5009042;28;20456;-85
2021/07/13 16:13:22;;;;;;;1.50;1.40;;;19.40;99.90;;;;;;5008279;28;20503;-83
2021/07/13 16:15:55;;;;;;;1.60;1.20;;;19.40;99.90;;;;;;5008240;28;20548;-84
2021/07/13 16:18:33;;;;;;;1.70;1.30;;;19.40;99.90;;;;;;5011820;28;20492;-85
2021/07/13 16:21:07;;;;;;;2.27;1.40;;;19.40;99.90;;;;;;5009213;28;20452;-84
2021/07/13 16:23:42;;;;;;;1.20;1.10;;;19.40;99.90;;;;;;5007643;28;20457;-85
2021/07/13 16:26:24;;;;;;;4.40;1.30;;;19.40;99.90;;;;;;5007181;28;20984;-89
2021/07/13 16:28:57;;;;;;;1.30;1.20;;;19.40;99.90;;;;;;5004939;28;20979;-84
2021/07/13 16:31:28;;;;;;;1.93;1.70;;;19.40;99.90;;;;;;5006880;28;20506;-85
2021/07/13 16:34:04;;;;;;;1.20;1.00;;;19.40;99.90;;;;;;5009806;28;20456;-85
2021/07/13 16:39:31;;;;;;;1.67;1.00;;;19.40;99.90;;;;;;5018206;28;20483;-85
2021/07/13 16:42:03;;;;;;;1.20;1.00;;;19.60;99.90;;;;;;5013488;28;20426;-82
2021/07/13 16:44:37;;;;;;;1.23;1.13;;;19.70;99.90;;;;;;5009008;28;20470;-81
2021/07/13 16:47:23;;;;;;;1.43;1.20;;;19.80;99.90;;;;;;5015869;28;20474;-82
2021/07/13 16:50:03;;;;;;;1.57;1.30;;;20.00;99.90;;;;;;5021989;28;20481;-83
2021/07/13 16:53:03;;;;;;;;;;;;;;;;;;;;;
2021/07/13 16:55:49;;;;;;;1.00;0.90;;;20.00;99.90;;;;;;5008126;28;20448;-83
2021/07/13 16:58:24;;;;;;;1.83;1.40;;;20.00;99.90;;;;;;5005191;28;21119;-84
2021/07/13 17:01:04;;;;;;;1.90;1.47;;;20.10;99.90;;;;;;5006356;28;20454;-83
2021/07/13 17:03:39;;;;;;;1.73;1.60;;;20.20;99.90;;;;;;5007499;28;20467;-83
2021/07/13 17:06:10;;;;;;;1.80;1.50;;;20.30;99.90;;;;;;5008608;28;20461;-84
2021/07/13 17:08:45;;;;;;;2.00;1.43;;;20.30;99.90;;;;;;5011085;28;20491;-84
2021/07/13 17:14:10;;;;;;;3.63;1.70;;;20.50;99.90;;;;;;5015305;28;20466;-84
2021/07/13 17:17:02;;;;;;;3.23;1.80;;;20.50;99.90;;;;;;5016799;28;20445;-85
2021/07/13 17:19:58;;;;;;;5.90;4.43;;;20.60;99.90;;;;;;5011227;28;20504;-84
2021/07/13 17:25:34;;;;;;;7.47;5.60;;;20.60;99.90;;;;;;5022862;28;20566;-84
2021/07/13 17:28:03;;;;;;;4.13;3.57;;;20.60;99.90;;;;;;5016816;28;20470;-84
2021/07/13 17:30:32;;;;;;;4.30;2.60;;;20.50;99.90;;;;;;5012258;28;20444;-84
2021/07/13 17:33:08;;;;;;;8.97;6.07;;;20.50;99.90;;;;;;5010556;28;20522;-84
2021/07/13 17:45:20;;;;;;;3.33;2.70;;;20.40;99.90;;;;;;4887711;29;20450;-84
2021/07/13 18:12:26;;;;;;;1.27;1.17;;;19.70;99.90;;;;;;4994730;28;21031;-83
2021/07/13 18:15:11;;;;;;;1.73;1.47;;;19.70;99.90;;;;;;4924657;29;20554;-83
2021/07/13 18:32:24;;;;;;;6.43;3.37;;;19.50;99.90;;;;;;4922235;29;20506;-84
2021/07/13 18:35:33;;;;;;;;;;;;;;;;;;;;;
2021/07/13 18:38:30;;;;;;;2.53;1.90;;;19.50;99.90;;;;;;4897843;29;20840;-84
2021/07/13 18:41:38;;;;;;;2.60;1.63;;;19.60;99.90;;;;;;4965919;28;20453;-84
2021/07/13 19:00:47;;;;;;;3.00;1.27;;;19.60;99.90;;;;;;5034831;23;20560;-82
2021/07/13 19:06:31;;;;;;;1.17;1.07;;;19.50;99.90;;;;;;4999838;28;20557;-82
2021/07/13 19:09:01;;;;;;;1.47;0.87;;;19.40;99.90;;;;;;4994321;28;20480;-81
2021/07/13 19:11:38;;;;;;;1.90;1.40;;;19.30;99.90;;;;;;4997113;28;20872;-82
2021/07/13 19:17:51;;;;;;;1.90;1.80;;;19.10;99.90;;;;;;4898147;28;20524;-82
2021/07/13 19:20:46;;;;;;;1.13;1.03;;;19.00;99.90;;;;;;4995344;28;20470;-82
2021/07/13 19:27:10;;;;;;;2.03;1.77;;;18.90;99.90;;;;;;4994922;28;20438;-83
2021/07/13 19:52:59;;;;;;;2.83;2.20;;;18.70;99.90;;;;;;5167890;22;20841;-91
2021/07/13 19:55:26;;;;;;;1.73;1.60;;;18.60;99.90;;;;;;5021212;28;20419;-88
2021/07/13 20:00:42;;;;;;;2.53;2.33;;;18.60;99.90;;;;;;4989980;28;20570;-91
2021/07/13 20:10:18;;;;;;;2.03;1.53;;;18.50;99.90;;;;;;4941725;29;20517;-92
2021/07/13 20:16:58;;;;;;;2.90;2.60;;;18.40;99.90;;;;;;4993628;28;20455;-92
2021/07/13 20:22:56;;;;;;;6.57;4.73;;;18.30;99.90;;;;;;5010470;28;20436;-91
2021/07/13 20:29:18;;;;;;;4.20;3.27;;;18.40;99.90;;;;;;4938735;29;20445;-90
2021/07/13 20:32:12;;;;;;;1.70;1.60;;;18.40;99.90;;;;;;4990508;28;20468;-91
2021/07/13 20:35:25;;;;;;;;;;;;;;;;;;;;;
2021/07/13 21:06:05;;;;;;;3.90;1.80;;;17.90;99.90;;;;;;4840225;29;20437;-94
2021/07/13 21:14:33;;;;;;;1.87;1.77;;;17.60;99.90;;;;;;5028693;28;20511;-93
2021/07/13 21:17:01;;;;;;;2.30;2.03;;;17.50;99.90;;;;;;5031223;28;20447;-94
2021/07/13 21:19:37;;;;;;;2.73;2.27;;;17.60;99.90;;;;;;5178174;23;20513;-94
2021/07/13 21:22:08;;;;;;;5.83;3.27;;;17.60;99.90;;;;;;4998471;28;20456;-93
2021/07/13 21:30:21;;;;;;;3.10;2.33;;;17.60;99.90;;;;;;5204762;22;20486;-94
2021/07/13 21:32:53;;;;;;;2.47;2.27;;;17.60;99.90;;;;;;5023249;28;20455;-93
2021/07/13 21:43:45;;;;;;;3.20;2.40;;;17.40;99.90;;;;;;5317846;22;20472;-95
2021/07/13 21:46:14;;;;;;;3.43;2.53;;;17.30;99.90;;;;;;5015595;28;20481;-94
2021/07/13 21:48:41;;;;;;;3.00;2.33;;;17.30;99.90;;;;;;5010145;28;20432;-95
2021/07/13 21:51:09;;;;;;;2.60;2.23;;;17.30;99.90;;;;;;5016490;28;20463;-94
2021/07/13 21:53:37;;;;;;;4.60;2.80;;;17.20;99.90;;;;;;5014328;28;20454;-94
2021/07/13 21:56:07;;;;;;;3.30;2.23;;;17.00;99.90;;;;;;5010761;28;20447;-94
2021/07/13 21:58:39;;;;;;;3.00;2.70;;;17.00;99.90;;;;;;5008831;28;20462;-94
2021/07/13 22:29:39;;;;;;;5.80;3.07;;;16.70;99.90;;;;;;5001292;28;20485;-93
2021/07/13 22:32:07;;;;;;;8.23;3.10;;;16.70;99.90;;;;;;5005479;28;20478;-93
2021/07/13 22:34:36;;;;;;;6.70;3.40;;;16.70;99.90;;;;;;5007054;28;20443;-94
2021/07/13 22:37:05;;;;;;;4.17;3.00;;;16.70;99.90;;;;;;5004389;28;20893;-93
2021/07/13 22:39:35;;;;;;;2.70;2.30;;;16.70;99.90;;;;;;5004902;28;20463;-93
2021/07/13 22:42:03;;;;;;;3.30;3.00;;;16.80;99.90;;;;;;5008291;28;20448;-94
2021/07/13 22:44:32;;;;;;;5.37;3.27;;;16.80;99.90;;;;;;5011930;28;20453;-92
2021/07/13 22:47:01;;;;;;;3.70;2.87;;;16.80;99.90;;;;;;5015681;28;20433;-93
2021/07/13 22:49:29;;;;;;;3.97;2.87;;;16.80;99.90;;;;;;5007445;28;20511;-93
2021/07/13 22:51:56;;;;;;;3.37;3.07;;;16.80;99.90;;;;;;5009522;28;20450;-93
2021/07/13 22:54:23;;;;;;;4.17;3.10;;;16.70;99.90;;;;;;5007597;28;20448;-92
2021/07/13 22:56:51;;;;;;;3.33;2.97;;;16.70;99.90;;;;;;5003065;28;20454;-93
2021/07/13 22:59:19;;;;;;;3.30;2.90;;;16.80;99.90;;;;;;5003504;28;20471;-93
2021/07/13 23:01:55;;;;;;;3.47;3.00;;;16.80;99.90;;;;;;5009290;28;20466;-93
2021/07/13 23:04:34;;;;;;;3.07;2.77;;;16.80;99.90;;;;;;5006879;28;20554;-94
2021/07/13 23:07:06;;;;;;;2.97;2.67;;;16.80;99.90;;;;;;5014152;28;20447;-94
2021/07/13 23:09:35;;;;;;;4.63;2.80;;;16.80;99.90;;;;;;5007903;28;20573;-93
2021/07/13 23:12:03;;;;;;;3.40;2.67;;;16.80;99.90;;;;;;5004673;28;20463;-93
2021/07/13 23:14:32;;;;;;;4.03;3.40;;;16.70;99.90;;;;;;5019532;28;20439;-96
2021/07/13 23:16:59;;;;;;;4.23;3.30;;;16.70;99.90;;;;;;5009108;28;20448;-93
2021/07/13 23:19:31;;;;;;;2.80;2.60;;;16.70;99.90;;;;;;5005011;28;20447;-94
2021/07/13 23:22:01;;;;;;;3.50;3.20;;;16.60;99.90;;;;;;5003393;28;20455;-93
2021/07/13 23:27:16;;;;;;;4.20;3.43;;;16.50;99.90;;;;;;5013047;28;20470;-94
2021/07/13 23:29:45;;;;;;;5.40;3.30;;;16.40;99.90;;;;;;5020702;28;20484;-96
2021/07/13 23:32:13;;;;;;;3.63;3.30;;;16.40;99.90;;;;;;5021804;28;20449;-94
2021/07/13 23:34:42;;;;;;;2.73;2.50;;;16.40;99.90;;;;;;5021495;28;20439;-95
2021/07/13 23:37:09;;;;;;;4.23;3.83;;;16.30;99.90;;;;;;5012422;28;20459;-93
2021/07/13 23:39:37;;;;;;;5.20;4.00;;;16.30;99.90;;;;;;5021519;28;20438;-95
2021/07/13 23:42:04;;;;;;;6.80;4.50;;;16.30;99.90;;;;;;5021700;28;20441;-96
2021/07/13 23:44:32;;;;;;;6.97;4.10;;;16.20;99.90;;;;;;5021204;28;20454;-94
2021/07/13 23:46:59;;;;;;;3.17;2.93;;;16.20;99.90;;;;;;5021724;28;20442;-95
2021/07/13 23:49:30;;;;;;;4.43;3.80;;;16.20;99.90;;;;;;5021055;28;20469;-94
2021/07/13 23:52:03;;;;;;;4.20;3.17;;;16.30;99.90;;;;;;5021745;28;20467;-95
2021/07/13 23:54:31;;;;;;;3.37;3.07;;;16.20;99.90;;;;;;5021377;28;20438;-95
2021/07/13 23:56:58;;;;;;;2.87;2.47;;;16.20;99.90;;;;;;5020890;28;20443;-94
2021/07/13 23:59:25;;;;;;;3.30;3.00;;;16.30;99.90;;;;;;5014047;28;20443;-93
